createdAt,value
2019-03-24T00:04:06.225Z,93.30
2019-03-24T00:06:35.685Z,90.53
2019-03-24T00:09:06.818Z,93.53
2019-03-24T00:11:36.275Z,95.60
2019-03-24T00:14:08.705Z,90.80
2019-03-24T00:16:38.177Z,99.00
2019-03-24T00:19:07.634Z,94.80
2019-03-24T00:21:37.102Z,86.97
2019-03-24T00:24:06.588Z,94.90
2019-03-24T00:26:36.141Z,84.13
2019-03-24T00:29:05.607Z,90.40
2019-03-24T00:31:35.419Z,85.83
2019-03-24T00:34:04.909Z,85.87
2019-03-24T00:36:34.366Z,84.37
2019-03-24T00:39:05.112Z,91.57
2019-03-24T00:41:34.946Z,89.30
2019-03-24T00:44:04.407Z,79.10
2019-03-24T00:46:33.874Z,92.00
2019-03-24T00:49:03.795Z,84.87
2019-03-24T00:51:33.302Z,84.40
2019-03-24T00:54:02.721Z,82.07
2019-03-24T00:56:32.174Z,86.23
2019-03-24T00:59:01.651Z,86.00
2019-03-24T01:01:31.106Z,86.73
2019-03-24T01:04:00.715Z,79.77
2019-03-24T01:06:30.198Z,81.90
2019-03-24T01:08:59.669Z,78.70
2019-03-24T01:11:29.157Z,85.87
2019-03-24T01:13:59.455Z,84.20
2019-03-24T01:16:31.478Z,81.83
2019-03-24T01:19:01.841Z,84.63
2019-03-24T01:21:31.320Z,86.87
2019-03-24T01:24:01.071Z,88.00
2019-03-24T01:26:30.886Z,88.80
2019-03-24T01:29:00.337Z,91.03
2019-03-24T01:31:29.826Z,85.60
2019-03-24T01:33:59.285Z,86.90
2019-03-24T01:36:29.008Z,91.03
2019-03-24T01:38:58.630Z,85.73
2019-03-24T01:41:28.106Z,86.63
2019-03-24T01:43:57.564Z,85.77
2019-03-24T01:46:27.193Z,87.17
2019-03-24T01:48:56.952Z,89.43
2019-03-24T01:51:26.432Z,93.47
2019-03-24T01:53:55.895Z,82.83
2019-03-24T01:56:25.350Z,87.80
2019-03-24T01:58:54.908Z,89.23
2019-03-24T02:01:24.385Z,86.40
2019-03-24T02:03:54.118Z,81.93
2019-03-24T02:06:23.795Z,86.43
2019-03-24T02:08:53.437Z,82.90
2019-03-24T02:11:23.347Z,89.67
2019-03-24T02:13:53.339Z,80.90
2019-03-24T02:16:23.257Z,84.03
2019-03-24T02:18:53.276Z,87.20
2019-03-24T02:21:23.292Z,83.40
2019-03-24T02:23:53.105Z,81.97
2019-03-24T02:26:22.738Z,80.40
2019-03-24T02:28:52.475Z,86.60
2019-03-24T02:31:22.213Z,82.17
2019-03-24T02:33:51.693Z,84.80
2019-03-24T02:36:21.561Z,85.50
2019-03-24T02:38:51.386Z,83.37
2019-03-24T02:41:21.203Z,82.60
2019-03-24T02:43:50.651Z,80.10
2019-03-24T02:46:24.556Z,88.23
2019-03-24T02:48:51.570Z,89.47
2019-03-24T02:51:21.044Z,83.77
2019-03-24T02:53:50.629Z,83.60
2019-03-24T02:56:20.100Z,83.07
2019-03-24T02:58:49.550Z,89.53
2019-03-24T03:01:19.031Z,81.97
2019-03-24T03:03:48.481Z,91.60
2019-03-24T03:06:17.941Z,96.80
2019-03-24T03:08:47.589Z,88.30
2019-03-24T03:11:18.435Z,89.37
2019-03-24T03:13:47.907Z,89.00
2019-03-24T03:16:17.370Z,87.87
2019-03-24T03:18:46.841Z,89.37
2019-03-24T03:21:16.326Z,92.13
2019-03-24T03:23:45.824Z,91.17
2019-03-24T03:26:15.278Z,89.83
2019-03-24T03:28:44.733Z,89.10
2019-03-24T03:31:14.224Z,93.83
2019-03-24T03:33:43.690Z,93.13
2019-03-24T03:36:13.497Z,96.17
2019-03-24T03:38:42.961Z,99.67
2019-03-24T03:41:12.497Z,94.57
2019-03-24T03:43:41.942Z,92.10
2019-03-24T03:46:11.406Z,92.10
2019-03-24T03:48:41.245Z,92.80
2019-03-24T03:51:10.726Z,97.87
2019-03-24T03:53:40.571Z,92.83
2019-03-24T03:56:10.319Z,88.53
2019-03-24T03:58:39.796Z,88.63
2019-03-24T04:01:09.282Z,93.37
2019-03-24T04:03:39.401Z,89.07
2019-03-24T04:06:08.859Z,89.23
2019-03-24T04:08:38.338Z,98.37
2019-03-24T04:11:07.982Z,90.53
2019-03-24T04:13:37.442Z,88.00
2019-03-24T04:16:06.941Z,97.30
2019-03-24T04:18:47.819Z,93.77
2019-03-24T04:21:39.103Z,93.70
2019-03-24T04:24:21.076Z,88.00
2019-03-24T04:27:02.886Z,93.37
2019-03-24T04:29:43.849Z,93.13
2019-03-24T04:32:26.217Z,92.90
2019-03-24T04:35:08.108Z,85.63
2019-03-24T04:38:00.906Z,87.73
2019-03-24T04:40:33.163Z,86.63
2019-03-24T04:43:02.894Z,90.87
2019-03-24T04:45:32.512Z,84.40
2019-03-24T04:48:01.979Z,82.23
2019-03-24T04:50:31.561Z,79.63
2019-03-24T04:53:01.193Z,84.90
2019-03-24T04:55:30.720Z,84.73
2019-03-24T04:58:00.564Z,84.83
2019-03-24T05:00:37.759Z,88.83
2019-03-24T05:03:07.216Z,88.27
2019-03-24T05:05:37.388Z,89.50
2019-03-24T05:08:07.511Z,91.57
2019-03-24T05:10:36.957Z,77.13
2019-03-24T05:13:06.417Z,86.27
2019-03-24T05:15:35.863Z,77.13
2019-03-24T05:18:05.325Z,81.90
2019-03-24T05:20:34.784Z,80.53
2019-03-24T05:23:04.258Z,78.13
2019-03-24T05:25:33.721Z,72.03
2019-03-24T05:28:03.546Z,75.87
2019-03-24T05:30:33.005Z,75.13
2019-03-24T05:33:02.458Z,82.93
2019-03-24T05:35:31.911Z,80.40
2019-03-24T05:38:01.418Z,73.70
2019-03-24T05:40:30.863Z,73.80
2019-03-24T05:43:00.331Z,74.60
2019-03-24T05:45:29.789Z,77.37
2019-03-24T05:47:59.596Z,76.00
2019-03-24T05:50:29.049Z,79.80
2019-03-24T05:52:58.519Z,75.67
2019-03-24T05:55:28.216Z,71.70
2019-03-24T05:57:58.030Z,75.80
2019-03-24T06:00:27.489Z,73.30
2019-03-24T06:02:57.394Z,72.80
2019-03-24T06:05:26.831Z,74.43
2019-03-24T06:07:56.299Z,68.97
2019-03-24T06:10:25.790Z,70.13
2019-03-24T06:12:55.618Z,71.17
2019-03-24T06:15:25.082Z,75.40
2019-03-24T06:17:54.620Z,74.93
2019-03-24T06:20:24.084Z,72.33
2019-03-24T06:22:53.543Z,73.47
2019-03-24T06:25:23.018Z,67.17
2019-03-24T06:27:52.481Z,67.40
2019-03-24T06:30:22.812Z,74.90
2019-03-24T06:32:52.277Z,66.80
2019-03-24T06:35:21.828Z,71.60
2019-03-24T06:37:51.277Z,68.30
2019-03-24T06:40:20.732Z,67.03
2019-03-24T06:42:50.215Z,65.27
2019-03-24T06:45:27.915Z,64.87
2019-03-24T06:47:57.955Z,62.80
2019-03-24T06:50:21.982Z,65.37
2019-03-24T06:52:51.770Z,57.33
2019-03-24T06:55:21.582Z,58.53
2019-03-24T06:57:51.060Z,58.50
2019-03-24T07:00:20.595Z,62.10
2019-03-24T07:02:50.064Z,58.37
2019-03-24T07:05:19.544Z,58.33
2019-03-24T07:07:49.015Z,53.80
2019-03-24T07:10:18.474Z,52.30
2019-03-24T07:12:48.003Z,55.00
2019-03-24T07:15:17.458Z,54.53
2019-03-24T07:17:46.927Z,51.57
2019-03-24T07:20:16.774Z,47.03
2019-03-24T07:22:46.257Z,51.40
2019-03-24T07:25:15.700Z,49.87
2019-03-24T07:27:45.207Z,45.33
2019-03-24T07:30:14.847Z,42.30
2019-03-24T07:32:44.587Z,45.37
2019-03-24T07:35:14.044Z,46.13
2019-03-24T07:37:43.507Z,45.10
2019-03-24T07:40:13.308Z,48.97
2019-03-24T07:42:43.124Z,48.87
2019-03-24T07:45:12.911Z,46.53
2019-03-24T07:47:42.381Z,44.87
2019-03-24T07:50:12.456Z,48.53
2019-03-24T07:52:41.926Z,52.03
2019-03-24T07:55:11.524Z,46.70
2019-03-24T07:57:40.988Z,46.40
2019-03-24T08:00:11.497Z,44.47
2019-03-24T08:02:50.992Z,47.57
2019-03-24T08:05:15.471Z,46.10
2019-03-24T08:07:44.944Z,44.40
2019-03-24T08:10:14.455Z,43.23
2019-03-24T08:12:43.950Z,41.17
2019-03-24T08:15:23.821Z,41.73
2019-03-24T08:18:11.460Z,38.93
2019-03-24T08:20:43.900Z,42.43
2019-03-24T08:23:13.599Z,42.63
2019-03-24T08:25:43.421Z,39.40
2019-03-24T08:28:13.246Z,42.43
2019-03-24T08:30:42.714Z,37.07
2019-03-24T08:33:12.245Z,37.00
2019-03-24T08:35:41.695Z,36.00
2019-03-24T08:38:11.194Z,40.43
2019-03-24T08:40:40.695Z,39.10
2019-03-24T08:43:10.164Z,40.40
2019-03-24T08:45:39.628Z,40.33
2019-03-24T08:48:09.103Z,38.40
2019-03-24T08:50:38.555Z,34.93
2019-03-24T08:53:08.025Z,37.33
2019-03-24T08:55:37.481Z,36.33
2019-03-24T08:58:07.226Z,35.50
2019-03-24T09:00:36.756Z,36.63
2019-03-24T09:03:06.274Z,37.67
2019-03-24T09:05:35.737Z,34.60
2019-03-24T09:08:05.197Z,33.53
2019-03-24T09:10:34.735Z,28.97
2019-03-24T09:13:04.207Z,34.53
2019-03-24T09:15:33.731Z,30.57
2019-03-24T09:18:03.190Z,35.07
2019-03-24T09:20:41.314Z,35.07
2019-03-24T09:23:03.981Z,30.10
2019-03-24T09:25:33.477Z,33.13
2019-03-24T09:28:02.992Z,28.77
2019-03-24T09:30:36.585Z,31.40
2019-03-24T09:33:06.371Z,33.67
2019-03-24T09:35:35.913Z,28.00
2019-03-24T09:38:05.460Z,27.50
2019-03-24T09:40:35.835Z,32.33
2019-03-24T09:43:05.886Z,26.47
2019-03-24T09:45:35.339Z,25.77
2019-03-24T09:48:05.267Z,27.57
2019-03-24T09:50:35.080Z,25.83
2019-03-24T09:53:06.846Z,30.27
2019-03-24T09:55:38.525Z,30.13
2019-03-24T09:58:11.684Z,24.50
2019-03-24T10:00:47.616Z,28.43
2019-03-24T10:03:15.985Z,27.63
2019-03-24T10:05:47.297Z,28.23
2019-03-24T10:08:21.913Z,30.13
2019-03-24T10:10:51.585Z,27.47
2019-03-24T10:13:21.045Z,26.27
2019-03-24T10:15:50.514Z,30.40
2019-03-24T10:18:19.981Z,24.07
2019-03-24T10:20:49.454Z,25.03
2019-03-24T10:23:18.920Z,29.30
2019-03-24T10:25:48.407Z,28.60
2019-03-24T10:28:18.232Z,22.40
2019-03-24T10:30:47.766Z,21.67
2019-03-24T10:33:17.213Z,27.60
2019-03-24T10:35:46.683Z,25.20
2019-03-24T10:38:16.143Z,26.47
2019-03-24T10:40:45.612Z,23.53
2019-03-24T10:43:15.089Z,28.03
2019-03-24T10:45:44.572Z,28.37
2019-03-24T10:48:14.384Z,23.83
2019-03-24T10:50:43.862Z,21.00
2019-03-24T10:53:13.310Z,23.77
2019-03-24T10:55:43.104Z,20.40
2019-03-24T10:58:12.631Z,21.63
2019-03-24T11:00:43.130Z,26.20
2019-03-24T11:03:12.944Z,22.77
2019-03-24T11:05:42.429Z,25.30
2019-03-24T11:08:11.894Z,20.90
2019-03-24T11:10:41.373Z,23.63
2019-03-24T11:13:10.838Z,24.50
2019-03-24T11:15:40.314Z,22.23
2019-03-24T11:18:09.790Z,21.77
2019-03-24T11:20:39.599Z,25.87
2019-03-24T11:23:09.399Z,24.37
2019-03-24T11:25:38.884Z,22.17
2019-03-24T11:28:08.337Z,24.60
2019-03-24T11:30:37.842Z,27.40
2019-03-24T11:33:07.401Z,22.27
2019-03-24T11:35:36.861Z,22.87
2019-03-24T11:38:06.325Z,22.87
2019-03-24T11:40:35.866Z,22.80
2019-03-24T11:43:05.417Z,19.27
2019-03-24T11:45:35.125Z,20.47
2019-03-24T11:48:04.606Z,23.73
2019-03-24T11:50:34.091Z,23.30
2019-03-24T11:53:03.618Z,20.37
2019-03-24T11:55:33.085Z,19.13
2019-03-24T11:58:06.135Z,24.37
2019-03-24T12:00:36.309Z,22.37
2019-03-24T12:03:05.780Z,22.73
2019-03-24T12:05:35.250Z,18.67
2019-03-24T12:08:05.153Z,21.87
2019-03-24T12:10:34.784Z,21.50
2019-03-24T12:13:04.246Z,18.63
2019-03-24T12:15:33.792Z,22.77
2019-03-24T12:18:03.561Z,20.87
2019-03-24T12:20:33.233Z,19.30
2019-03-24T12:23:02.695Z,21.70
2019-03-24T12:25:32.198Z,20.07
2019-03-24T12:28:01.660Z,21.23
2019-03-24T12:30:31.413Z,22.17
2019-03-24T12:33:00.870Z,22.40
2019-03-24T12:35:30.367Z,22.73
2019-03-24T12:37:59.834Z,21.37
2019-03-24T12:40:29.303Z,25.20
2019-03-24T12:42:58.782Z,22.30
2019-03-24T12:45:28.244Z,30.83
2019-03-24T12:47:57.893Z,22.40
2019-03-24T12:50:31.689Z,21.60
2019-03-24T12:52:58.991Z,21.90
2019-03-24T12:55:28.518Z,25.63
2019-03-24T12:57:58.057Z,26.60
2019-03-24T13:00:38.150Z,25.67
2019-03-24T13:03:07.822Z,22.10
2019-03-24T13:05:37.337Z,22.07
2019-03-24T13:08:15.207Z,26.23
2019-03-24T13:10:45.505Z,23.93
2019-03-24T13:13:14.958Z,22.73
2019-03-24T13:15:45.021Z,27.10
2019-03-24T13:18:14.498Z,26.33
2019-03-24T13:20:44.229Z,26.07
2019-03-24T13:23:13.718Z,24.17
2019-03-24T13:25:43.188Z,25.57
2019-03-24T13:28:12.754Z,29.53
2019-03-24T13:30:42.472Z,20.53
2019-03-24T13:33:11.938Z,25.00
2019-03-24T13:35:41.565Z,25.17
2019-03-24T13:38:11.060Z,24.30
2019-03-24T13:40:40.518Z,26.63
2019-03-24T13:43:10.036Z,24.50
2019-03-24T13:45:39.578Z,25.60
2019-03-24T13:48:09.047Z,27.20
2019-03-24T13:50:38.504Z,30.97
2019-03-24T13:53:08.442Z,21.13
2019-03-24T13:55:37.894Z,24.03
2019-03-24T13:58:08.241Z,28.13
2019-03-24T14:00:37.716Z,27.03
2019-03-24T14:03:07.186Z,22.67
2019-03-24T14:05:36.658Z,23.83
2019-03-24T14:08:06.131Z,20.63
2019-03-24T14:10:35.902Z,22.43
2019-03-24T14:13:05.379Z,24.07
2019-03-24T14:15:34.852Z,21.10
2019-03-24T14:18:04.631Z,21.13
2019-03-24T14:20:42.766Z,26.77
2019-03-24T14:23:05.270Z,19.10
2019-03-24T14:25:34.815Z,20.70
2019-03-24T14:28:04.297Z,21.30
2019-03-24T14:30:45.607Z,17.53
2019-03-24T14:33:15.167Z,18.23
2019-03-24T14:35:44.633Z,17.80
2019-03-24T14:38:14.119Z,19.73
2019-03-24T14:40:43.746Z,21.10
2019-03-24T14:43:13.622Z,19.63
2019-03-24T14:45:43.105Z,23.87
2019-03-24T14:48:12.600Z,23.87
2019-03-24T14:50:42.078Z,22.07
2019-03-24T14:53:11.612Z,21.27
2019-03-24T14:55:41.060Z,26.37
2019-03-24T14:58:10.527Z,26.70
2019-03-24T15:00:44.070Z,20.10
2019-03-24T15:03:13.603Z,20.50
2019-03-24T15:05:43.564Z,22.00
2019-03-24T15:08:13.116Z,20.33
2019-03-24T15:10:42.566Z,20.63
2019-03-24T15:13:13.419Z,17.43
2019-03-24T15:15:42.888Z,19.57
2019-03-24T15:18:12.392Z,23.70
2019-03-24T15:20:41.859Z,22.60
2019-03-24T15:23:11.357Z,21.87
2019-03-24T15:25:41.993Z,22.27
2019-03-24T15:28:11.550Z,18.23
2019-03-24T15:30:41.327Z,24.37
2019-03-24T15:33:10.850Z,21.97
2019-03-24T15:35:40.302Z,21.07
2019-03-24T15:38:09.862Z,21.40
2019-03-24T15:40:39.319Z,24.23
2019-03-24T15:43:08.887Z,26.43
2019-03-24T15:45:38.339Z,25.20
2019-03-24T15:48:07.815Z,21.23
2019-03-24T15:50:37.291Z,21.33
2019-03-24T15:53:06.758Z,24.30
2019-03-24T15:55:36.221Z,22.60
2019-03-24T15:58:05.956Z,19.87
2019-03-24T16:00:46.142Z,23.67
2019-03-24T16:03:15.636Z,22.53
2019-03-24T16:05:45.444Z,24.10
2019-03-24T16:08:15.234Z,21.80
2019-03-24T16:10:44.760Z,23.17
2019-03-24T16:13:14.480Z,31.37
2019-03-24T16:15:43.960Z,21.43
2019-03-24T16:18:13.401Z,22.87
2019-03-24T16:20:42.872Z,24.10
2019-03-24T16:23:12.375Z,27.97
2019-03-24T16:25:41.843Z,25.47
2019-03-24T16:28:11.337Z,18.50
2019-03-24T16:30:40.805Z,26.97
2019-03-24T16:33:16.436Z,23.17
2019-03-24T16:35:50.577Z,20.93
2019-03-24T16:38:27.424Z,27.87
2019-03-24T16:40:56.913Z,21.40
2019-03-24T16:43:26.835Z,26.33
2019-03-24T16:45:56.389Z,26.67
2019-03-24T16:48:36.195Z,26.83
2019-03-24T16:50:57.115Z,35.10
2019-03-24T16:53:26.613Z,27.97
2019-03-24T16:55:56.079Z,22.70
2019-03-24T16:58:25.744Z,27.83
2019-03-24T17:00:55.238Z,26.17
2019-03-24T17:03:24.733Z,27.20
2019-03-24T17:05:54.198Z,22.70
2019-03-24T17:08:23.677Z,28.87
2019-03-24T17:10:53.179Z,26.20
2019-03-24T17:13:22.686Z,30.10
2019-03-24T17:15:52.206Z,26.83
2019-03-24T17:18:21.694Z,34.97
2019-03-24T17:20:51.182Z,27.30
2019-03-24T17:23:20.656Z,29.43
2019-03-24T17:25:50.197Z,27.17
2019-03-24T17:28:20.036Z,29.20
2019-03-24T17:30:49.731Z,24.83
2019-03-24T17:33:19.225Z,28.73
2019-03-24T17:35:48.708Z,26.80
2019-03-24T17:38:18.184Z,28.57
2019-03-24T17:40:47.639Z,30.67
2019-03-24T17:43:17.374Z,29.27
2019-03-24T17:45:46.847Z,28.07
2019-03-24T17:48:16.369Z,36.47
2019-03-24T17:50:45.873Z,34.70
2019-03-24T17:53:15.344Z,35.33
2019-03-24T17:55:44.796Z,31.57
2019-03-24T17:58:14.269Z,32.43
2019-03-24T18:00:46.623Z,33.93
2019-03-24T18:03:16.117Z,38.47
2019-03-24T18:05:45.731Z,39.03
2019-03-24T18:08:15.224Z,40.67
2019-03-24T18:10:44.680Z,36.67
2019-03-24T18:13:14.315Z,41.30
2019-03-24T18:15:43.789Z,43.33
2019-03-24T18:18:13.274Z,43.43
2019-03-24T18:20:43.128Z,45.80
2019-03-24T18:23:13.607Z,45.03
2019-03-24T18:25:43.113Z,44.77
2019-03-24T18:28:12.994Z,39.73
2019-03-24T18:30:42.542Z,49.03
2019-03-24T18:33:12.032Z,44.20
2019-03-24T18:35:41.499Z,46.73
2019-03-24T18:38:11.037Z,45.93
2019-03-24T18:40:40.774Z,48.23
2019-03-24T18:43:10.227Z,47.83
2019-03-24T18:45:39.692Z,45.60
2019-03-24T18:48:09.650Z,48.37
2019-03-24T18:50:39.129Z,48.07
2019-03-24T18:53:12.726Z,50.60
2019-03-24T18:55:42.191Z,53.47
2019-03-24T18:58:11.671Z,58.57
2019-03-24T19:00:41.210Z,48.10
2019-03-24T19:03:10.666Z,53.47
2019-03-24T19:05:40.247Z,50.33
2019-03-24T19:08:09.709Z,54.77
2019-03-24T19:10:39.214Z,57.20
2019-03-24T19:13:08.674Z,59.13
2019-03-24T19:15:38.139Z,52.13
2019-03-24T19:18:07.590Z,51.53
2019-03-24T19:20:37.431Z,49.10
2019-03-24T19:23:06.940Z,54.33
2019-03-24T19:25:36.501Z,53.07
2019-03-24T19:28:06.263Z,56.77
2019-03-24T19:30:37.641Z,52.83
2019-03-24T19:33:07.149Z,62.60
2019-03-24T19:35:36.778Z,57.00
2019-03-24T19:38:06.281Z,57.60
2019-03-24T19:40:35.995Z,51.50
2019-03-24T19:43:05.688Z,50.63
2019-03-24T19:45:36.901Z,46.30
2019-03-24T19:48:06.484Z,46.73
2019-03-24T19:50:36.028Z,45.87
2019-03-24T19:53:05.741Z,45.20
2019-03-24T19:55:35.248Z,43.27
2019-03-24T19:58:05.090Z,42.20
2019-03-24T20:00:34.554Z,51.67
2019-03-24T20:03:04.399Z,44.67
2019-03-24T20:05:33.921Z,45.23
2019-03-24T20:08:03.366Z,43.30
2019-03-24T20:10:32.843Z,43.40
2019-03-24T20:13:02.294Z,39.80
2019-03-24T20:15:31.850Z,43.77
2019-03-24T20:18:01.649Z,46.27
2019-03-24T20:20:31.137Z,42.07
2019-03-24T20:23:00.622Z,39.47
2019-03-24T20:25:30.091Z,42.40
2019-03-24T20:27:59.802Z,46.60
2019-03-24T20:30:29.272Z,46.87
2019-03-24T20:33:02.174Z,50.87
2019-03-24T20:35:34.670Z,44.93
2019-03-24T20:38:12.581Z,46.20
2019-03-24T20:40:52.670Z,41.90
2019-03-24T20:43:30.377Z,44.23
2019-03-24T20:46:20.186Z,41.43
2019-03-24T20:48:43.623Z,39.63
2019-03-24T20:51:18.378Z,41.33
2019-03-24T20:53:53.888Z,46.00
2019-03-24T20:56:30.293Z,47.93
2019-03-24T20:59:09.169Z,47.33
2019-03-24T21:01:40.460Z,45.27
2019-03-24T21:04:09.936Z,46.23
2019-03-24T21:06:39.392Z,51.53
2019-03-24T21:09:09.546Z,48.67
2019-03-24T21:11:39.027Z,52.60
2019-03-24T21:14:08.770Z,52.23
2019-03-24T21:16:38.507Z,51.77
2019-03-24T21:19:08.396Z,49.50
2019-03-24T21:21:37.868Z,44.03
2019-03-24T21:24:07.329Z,54.77
2019-03-24T21:26:36.826Z,52.47
2019-03-24T21:29:06.313Z,48.73
2019-03-24T21:31:35.754Z,47.70
2019-03-24T21:34:05.225Z,55.10
2019-03-24T21:36:35.258Z,57.57
2019-03-24T21:39:07.044Z,59.77
2019-03-24T21:41:36.686Z,53.27
2019-03-24T21:44:06.145Z,58.20
2019-03-24T21:46:35.618Z,54.37
2019-03-24T21:49:05.101Z,59.47
2019-03-24T21:51:34.599Z,54.33
2019-03-24T21:54:04.045Z,60.60
2019-03-24T21:56:33.591Z,54.70
2019-03-24T21:59:03.361Z,52.43
2019-03-24T22:01:33.005Z,53.63
2019-03-24T22:04:02.465Z,53.13
2019-03-24T22:06:31.965Z,56.77
2019-03-24T22:09:01.420Z,49.27
2019-03-24T22:11:31.182Z,55.07
2019-03-24T22:14:00.631Z,56.97
2019-03-24T22:16:30.432Z,48.67
2019-03-24T22:18:59.905Z,59.47
2019-03-24T22:21:29.370Z,59.73
2019-03-24T22:23:58.986Z,58.57
2019-03-24T22:26:28.450Z,58.33
2019-03-24T22:28:57.923Z,59.70
2019-03-24T22:31:27.404Z,62.33
2019-03-24T22:33:56.866Z,63.20
2019-03-24T22:36:26.333Z,61.97
2019-03-24T22:38:55.793Z,74.70
2019-03-24T22:41:25.340Z,72.23
2019-03-24T22:43:54.796Z,70.50
2019-03-24T22:46:24.269Z,79.23
2019-03-24T22:48:53.904Z,75.33
2019-03-24T22:51:23.384Z,72.23
2019-03-24T22:54:03.016Z,78.73
2019-03-24T22:56:24.042Z,79.90
2019-03-24T22:58:53.523Z,85.67
2019-03-24T23:01:23.277Z,80.90
2019-03-24T23:03:52.738Z,71.63
2019-03-24T23:06:22.202Z,72.83
2019-03-24T23:08:51.726Z,69.77
2019-03-24T23:11:21.220Z,80.10
2019-03-24T23:13:50.689Z,74.73
2019-03-24T23:16:20.208Z,90.80
2019-03-24T23:18:49.666Z,84.10
2019-03-24T23:21:19.136Z,78.57
2019-03-24T23:23:48.619Z,77.40
2019-03-24T23:26:18.105Z,79.20
2019-03-24T23:28:47.727Z,90.07
2019-03-24T23:31:17.459Z,80.47
2019-03-24T23:33:46.916Z,88.00
2019-03-24T23:36:16.387Z,77.23
2019-03-24T23:38:45.842Z,77.73
2019-03-24T23:41:15.316Z,73.17
2019-03-24T23:43:44.817Z,87.40
2019-03-24T23:46:14.277Z,76.60
2019-03-24T23:48:44.073Z,76.40
2019-03-24T23:51:13.558Z,78.80
2019-03-24T23:53:43.024Z,73.80
2019-03-24T23:56:12.521Z,74.10
2019-03-24T23:58:41.988Z,83.13
